sensor_id;sensor_type;location;lat;lon;timestamp;pressure;altitude;pressure_sealevel;temperature;humidity
75497;BME280;64074;47.540;19.072;2023-05-21T00:02:19;100700.47;;;19.44;56.35
75497;BME280;64074;47.540;19.072;2023-05-21T00:05:31;100711.38;;;19.40;56.91
75497;BME280;64074;47.540;19.072;2023-05-21T00:08:48;100707.22;;;19.46;56.63
75497;BME280;64074;47.540;19.072;2023-05-21T00:11:51;100723.16;;;19.41;56.40
75497;BME280;64074;47.540;19.072;2023-05-21T00:14:58;100718.91;;;19.55;56.68
75497;BME280;64074;47.540;19.072;2023-05-21T00:18:10;100711.00;;;19.54;57.03
75497;BME280;64074;47.540;19.072;2023-05-21T00:21:20;100708.94;;;19.51;56.97
75497;BME280;64074;47.540;19.072;2023-05-21T00:24:32;100711.91;;;19.58;56.41
75497;BME280;64074;47.540;19.072;2023-05-21T00:27:39;100709.28;;;19.49;56.56
75497;BME280;64074;47.540;19.072;2023-05-21T00:30:46;100711.72;;;19.39;57.09
75497;BME280;64074;47.540;19.072;2023-05-21T00:33:49;100716.06;;;19.40;56.85
75497;BME280;64074;47.540;19.072;2023-05-21T00:36:52;100716.97;;;19.44;57.46
75497;BME280;64074;47.540;19.072;2023-05-21T00:40:06;100709.66;;;19.35;57.25
75497;BME280;64074;47.540;19.072;2023-05-21T00:43:28;100712.63;;;19.30;57.70
75497;BME280;64074;47.540;19.072;2023-05-21T00:46:49;100715.72;;;18.92;59.61
75497;BME280;64074;47.540;19.072;2023-05-21T00:50:05;100709.50;;;18.71;60.03
75497;BME280;64074;47.540;19.072;2023-05-21T00:53:10;100704.69;;;18.68;60.03
75497;BME280;64074;47.540;19.072;2023-05-21T00:56:19;100695.38;;;18.60;60.66
75497;BME280;64074;47.540;19.072;2023-05-21T00:59:27;100715.22;;;18.66;60.22
75497;BME280;64074;47.540;19.072;2023-05-21T01:02:36;100708.59;;;18.67;60.37
75497;BME280;64074;47.540;19.072;2023-05-21T01:05:45;100711.94;;;18.52;60.33
75497;BME280;64074;47.540;19.072;2023-05-21T01:08:55;100713.19;;;18.42;60.64
75497;BME280;64074;47.540;19.072;2023-05-21T01:12:06;100691.34;;;18.58;59.89
75497;BME280;64074;47.540;19.072;2023-05-21T01:15:11;100704.13;;;18.62;59.89
75497;BME280;64074;47.540;19.072;2023-05-21T01:18:20;100694.38;;;18.65;59.95
75497;BME280;64074;47.540;19.072;2023-05-21T01:21:32;100699.88;;;18.65;60.10
75497;BME280;64074;47.540;19.072;2023-05-21T01:24:54;100699.28;;;18.59;59.99
75497;BME280;64074;47.540;19.072;2023-05-21T01:28:04;100698.31;;;18.43;60.93
75497;BME280;64074;47.540;19.072;2023-05-21T01:31:26;100686.06;;;18.40;60.58
75497;BME280;64074;47.540;19.072;2023-05-21T01:34:55;100696.59;;;18.38;60.80
75497;BME280;64074;47.540;19.072;2023-05-21T01:38:12;100699.47;;;18.42;60.48
75497;BME280;64074;47.540;19.072;2023-05-21T01:41:20;100696.72;;;18.42;60.49
75497;BME280;64074;47.540;19.072;2023-05-21T01:44:25;100701.53;;;18.45;60.36
75497;BME280;64074;47.540;19.072;2023-05-21T01:47:36;100698.53;;;18.38;60.69
75497;BME280;64074;47.540;19.072;2023-05-21T01:50:49;100697.38;;;18.39;60.65
75497;BME280;64074;47.540;19.072;2023-05-21T01:54:16;100694.13;;;18.25;60.97
75497;BME280;64074;47.540;19.072;2023-05-21T01:57:37;100704.06;;;18.17;60.96
75497;BME280;64074;47.540;19.072;2023-05-21T02:00:47;100697.09;;;18.20;61.10
75497;BME280;64074;47.540;19.072;2023-05-21T02:03:58;100699.03;;;18.19;61.30
75497;BME280;64074;47.540;19.072;2023-05-21T02:07:07;100701.13;;;18.01;61.61
75497;BME280;64074;47.540;19.072;2023-05-21T02:10:12;100695.38;;;18.15;61.44
75497;BME280;64074;47.540;19.072;2023-05-21T02:13:18;100690.41;;;18.08;61.65
75497;BME280;64074;47.540;19.072;2023-05-21T02:16:29;100687.63;;;17.96;62.29
75497;BME280;64074;47.540;19.072;2023-05-21T02:19:38;100693.91;;;17.97;62.09
75497;BME280;64074;47.540;19.072;2023-05-21T02:22:57;100694.47;;;17.90;62.14
75497;BME280;64074;47.540;19.072;2023-05-21T02:26:15;100694.16;;;17.83;62.09
75497;BME280;64074;47.540;19.072;2023-05-21T02:29:31;100696.09;;;17.82;62.06
75497;BME280;64074;47.540;19.072;2023-05-21T02:32:39;100696.19;;;17.74;62.58
75497;BME280;64074;47.540;19.072;2023-05-21T02:35:51;100691.31;;;17.79;62.26
75497;BME280;64074;47.540;19.072;2023-05-21T02:39:00;100690.28;;;17.84;62.30
75497;BME280;64074;47.540;19.072;2023-05-21T02:42:22;100682.28;;;17.79;62.50
75497;BME280;64074;47.540;19.072;2023-05-21T02:45:42;100681.47;;;17.78;62.28
75497;BME280;64074;47.540;19.072;2023-05-21T02:48:47;100682.59;;;17.77;62.33
75497;BME280;64074;47.540;19.072;2023-05-21T02:51:53;100689.91;;;17.73;62.26
75497;BME280;64074;47.540;19.072;2023-05-21T02:55:00;100689.91;;;17.73;62.54
75497;BME280;64074;47.540;19.072;2023-05-21T02:58:04;100691.72;;;17.69;62.42
75497;BME280;64074;47.540;19.072;2023-05-21T03:01:09;100693.31;;;17.70;62.46
75497;BME280;64074;47.540;19.072;2023-05-21T03:04:18;100687.50;;;17.72;62.55
75497;BME280;64074;47.540;19.072;2023-05-21T03:07:37;100693.06;;;17.54;62.94
75497;BME280;64074;47.540;19.072;2023-05-21T03:10:58;100684.94;;;17.67;62.75
75497;BME280;64074;47.540;19.072;2023-05-21T03:14:15;100682.00;;;17.72;62.42
75497;BME280;64074;47.540;19.072;2023-05-21T03:17:26;100683.56;;;17.52;63.03
75497;BME280;64074;47.540;19.072;2023-05-21T03:20:31;100685.03;;;17.49;63.35
75497;BME280;64074;47.540;19.072;2023-05-21T03:23:38;100685.31;;;17.57;63.17
75497;BME280;64074;47.540;19.072;2023-05-21T03:26:43;100685.91;;;17.41;63.03
75497;BME280;64074;47.540;19.072;2023-05-21T03:29:47;100687.53;;;17.42;63.21
75497;BME280;64074;47.540;19.072;2023-05-21T03:32:57;100688.44;;;17.46;62.89
75497;BME280;64074;47.540;19.072;2023-05-21T03:36:07;100682.38;;;17.41;63.04
75497;BME280;64074;47.540;19.072;2023-05-21T03:39:39;100687.72;;;17.58;62.63
75497;BME280;64074;47.540;19.072;2023-05-21T03:42:55;100693.78;;;17.72;62.25
75497;BME280;64074;47.540;19.072;2023-05-21T03:46:02;100697.06;;;17.87;61.70
75497;BME280;64074;47.540;19.072;2023-05-21T03:49:13;100701.53;;;17.91;61.69
75497;BME280;64074;47.540;19.072;2023-05-21T03:52:24;100695.19;;;17.99;61.53
75497;BME280;64074;47.540;19.072;2023-05-21T03:55:39;100701.34;;;17.96;61.34
75497;BME280;64074;47.540;19.072;2023-05-21T03:58:45;100698.84;;;18.03;61.29
75497;BME280;64074;47.540;19.072;2023-05-21T04:01:49;100704.13;;;18.08;61.29
75497;BME280;64074;47.540;19.072;2023-05-21T04:04:52;100699.72;;;18.16;61.02
75497;BME280;64074;47.540;19.072;2023-05-21T04:08:00;100709.47;;;18.26;60.58
75497;BME280;64074;47.540;19.072;2023-05-21T04:11:04;100710.25;;;18.26;61.00
75497;BME280;64074;47.540;19.072;2023-05-21T04:14:13;100713.25;;;18.33;60.67
75497;BME280;64074;47.540;19.072;2023-05-21T04:17:49;100703.81;;;18.43;60.31
75497;BME280;64074;47.540;19.072;2023-05-21T04:21:00;100707.50;;;18.59;59.77
75497;BME280;64074;47.540;19.072;2023-05-21T04:24:08;100705.06;;;18.58;59.35
75497;BME280;64074;47.540;19.072;2023-05-21T04:27:25;100702.56;;;18.53;59.32
75497;BME280;64074;47.540;19.072;2023-05-21T04:30:29;100706.97;;;18.66;59.23
75497;BME280;64074;47.540;19.072;2023-05-21T04:33:38;100707.22;;;18.73;59.04
75497;BME280;64074;47.540;19.072;2023-05-21T04:36:50;100699.81;;;18.86;58.74
75497;BME280;64074;47.540;19.072;2023-05-21T04:40:20;100708.47;;;18.75;59.10
75497;BME280;64074;47.540;19.072;2023-05-21T04:43:38;100704.56;;;18.64;59.30
75497;BME280;64074;47.540;19.072;2023-05-21T04:46:54;100706.28;;;18.81;59.30
75497;BME280;64074;47.540;19.072;2023-05-21T04:50:20;100711.59;;;18.86;58.86
75497;BME280;64074;47.540;19.072;2023-05-21T04:53:33;100707.69;;;18.87;59.80
75497;BME280;64074;47.540;19.072;2023-05-21T04:56:38;100690.19;;;18.92;59.28
75497;BME280;64074;47.540;19.072;2023-05-21T04:59:47;100700.38;;;18.91;58.90
75497;BME280;64074;47.540;19.072;2023-05-21T05:02:51;100695.44;;;18.97;58.79
75497;BME280;64074;47.540;19.072;2023-05-21T05:05:56;100694.31;;;19.10;58.63
75497;BME280;64074;47.540;19.072;2023-05-21T05:09:03;100695.69;;;19.16;59.28
75497;BME280;64074;47.540;19.072;2023-05-21T05:12:07;100689.03;;;19.05;58.25
75497;BME280;64074;47.540;19.072;2023-05-21T05:15:10;100700.03;;;19.17;58.44
75497;BME280;64074;47.540;19.072;2023-05-21T05:18:19;100695.34;;;19.18;58.06
75497;BME280;64074;47.540;19.072;2023-05-21T05:21:41;100695.09;;;19.23;57.79
75497;BME280;64074;47.540;19.072;2023-05-21T05:24:57;100693.16;;;19.23;57.42
75497;BME280;64074;47.540;19.072;2023-05-21T05:28:10;100696.38;;;19.13;58.22
75497;BME280;64074;47.540;19.072;2023-05-21T05:31:31;100688.09;;;19.38;57.39
75497;BME280;64074;47.540;19.072;2023-05-21T05:34:43;100695.97;;;19.51;56.91
75497;BME280;64074;47.540;19.072;2023-05-21T05:37:58;100688.75;;;19.71;55.02
75497;BME280;64074;47.540;19.072;2023-05-21T05:41:20;100692.78;;;20.02;53.38
75497;BME280;64074;47.540;19.072;2023-05-21T05:44:29;100688.31;;;20.25;52.11
75497;BME280;64074;47.540;19.072;2023-05-21T05:47:37;100686.97;;;20.47;51.36
75497;BME280;64074;47.540;19.072;2023-05-21T05:50:47;100685.75;;;20.76;50.54
75497;BME280;64074;47.540;19.072;2023-05-21T05:53:57;100685.38;;;20.77;50.23
75497;BME280;64074;47.540;19.072;2023-05-21T05:57:06;100684.78;;;20.84;49.90
75497;BME280;64074;47.540;19.072;2023-05-21T06:00:31;100678.81;;;20.98;49.89
75497;BME280;64074;47.540;19.072;2023-05-21T06:03:42;100675.31;;;21.16;49.64
75497;BME280;64074;47.540;19.072;2023-05-21T06:07:11;100667.47;;;21.18;49.23
75497;BME280;64074;47.540;19.072;2023-05-21T06:10:38;100672.56;;;21.16;48.92
75497;BME280;64074;47.540;19.072;2023-05-21T06:13:53;100676.28;;;21.40;48.63
75497;BME280;64074;47.540;19.072;2023-05-21T06:16:56;100670.16;;;21.31;48.78
75497;BME280;64074;47.540;19.072;2023-05-21T06:20:08;100661.34;;;21.60;49.03
75497;BME280;64074;47.540;19.072;2023-05-21T06:23:12;100654.50;;;21.54;48.48
75497;BME280;64074;47.540;19.072;2023-05-21T06:26:21;100659.41;;;21.61;47.89
75497;BME280;64074;47.540;19.072;2023-05-21T06:29:28;100657.66;;;21.72;47.99
75497;BME280;64074;47.540;19.072;2023-05-21T06:32:37;100657.06;;;21.63;47.98
75497;BME280;64074;47.540;19.072;2023-05-21T06:35:56;100646.91;;;21.67;47.84
75497;BME280;64074;47.540;19.072;2023-05-21T06:39:17;100655.47;;;21.81;47.26
75497;BME280;64074;47.540;19.072;2023-05-21T06:42:34;100644.66;;;21.92;47.37
75497;BME280;64074;47.540;19.072;2023-05-21T06:46:17;100641.94;;;21.95;47.00
75497;BME280;64074;47.540;19.072;2023-05-21T06:49:27;100638.63;;;21.86;46.83
75497;BME280;64074;47.540;19.072;2023-05-21T06:52:45;100657.28;;;22.31;46.31
75497;BME280;64074;47.540;19.072;2023-05-21T06:56:10;100655.50;;;22.42;46.14
75497;BME280;64074;47.540;19.072;2023-05-21T06:59:31;100639.59;;;22.36;45.63
75497;BME280;64074;47.540;19.072;2023-05-21T07:02:51;100640.09;;;22.41;46.20
75497;BME280;64074;47.540;19.072;2023-05-21T07:06:11;100632.22;;;22.44;45.57
75497;BME280;64074;47.540;19.072;2023-05-21T07:09:37;100639.84;;;22.50;46.46
75497;BME280;64074;47.540;19.072;2023-05-21T07:12:58;100631.16;;;22.75;46.26
75497;BME280;64074;47.540;19.072;2023-05-21T07:16:19;100636.03;;;22.58;45.75
75497;BME280;64074;47.540;19.072;2023-05-21T07:19:40;100630.72;;;22.95;45.57
75497;BME280;64074;47.540;19.072;2023-05-21T07:23:00;100633.13;;;22.97;45.13
75497;BME280;64074;47.540;19.072;2023-05-21T07:26:20;100621.28;;;22.96;45.42
75497;BME280;64074;47.540;19.072;2023-05-21T07:29:47;100612.88;;;23.16;44.73
75497;BME280;64074;47.540;19.072;2023-05-21T07:32:56;100611.84;;;23.01;45.14
75497;BME280;64074;47.540;19.072;2023-05-21T07:36:00;100614.63;;;23.01;45.44
75497;BME280;64074;47.540;19.072;2023-05-21T07:39:10;100616.41;;;23.43;45.14
75497;BME280;64074;47.540;19.072;2023-05-21T07:42:30;100623.91;;;23.42;44.46
75497;BME280;64074;47.540;19.072;2023-05-21T07:45:51;100618.59;;;23.56;44.29
75497;BME280;64074;47.540;19.072;2023-05-21T07:49:01;100626.63;;;23.39;43.98
75497;BME280;64074;47.540;19.072;2023-05-21T07:52:17;100624.41;;;23.51;43.35
75497;BME280;64074;47.540;19.072;2023-05-21T07:55:27;100612.78;;;23.39;43.55
75497;BME280;64074;47.540;19.072;2023-05-21T07:58:35;100614.84;;;23.45;43.35
75497;BME280;64074;47.540;19.072;2023-05-21T08:01:38;100613.94;;;23.64;43.41
75497;BME280;64074;47.540;19.072;2023-05-21T08:04:46;100617.16;;;23.70;42.39
75497;BME280;64074;47.540;19.072;2023-05-21T08:07:56;100616.06;;;23.78;42.32
75497;BME280;64074;47.540;19.072;2023-05-21T08:11:11;100610.78;;;24.03;42.59
75497;BME280;64074;47.540;19.072;2023-05-21T08:14:21;100613.22;;;24.04;42.66
75497;BME280;64074;47.540;19.072;2023-05-21T08:17:25;100611.66;;;24.07;42.38
75497;BME280;64074;47.540;19.072;2023-05-21T08:20:37;100612.75;;;24.02;42.55
75497;BME280;64074;47.540;19.072;2023-05-21T08:23:44;100604.03;;;24.00;42.22
75497;BME280;64074;47.540;19.072;2023-05-21T08:26:48;100618.66;;;24.31;43.08
75497;BME280;64074;47.540;19.072;2023-05-21T08:29:54;100617.53;;;24.39;42.78
75497;BME280;64074;47.540;19.072;2023-05-21T08:33:04;100614.03;;;24.49;41.96
75497;BME280;64074;47.540;19.072;2023-05-21T08:36:18;100611.34;;;24.56;42.09
75497;BME280;64074;47.540;19.072;2023-05-21T08:39:53;100610.03;;;24.43;42.67
75497;BME280;64074;47.540;19.072;2023-05-21T08:43:12;100615.78;;;24.64;41.81
75497;BME280;64074;47.540;19.072;2023-05-21T08:46:32;100615.81;;;24.71;41.67
75497;BME280;64074;47.540;19.072;2023-05-21T08:49:43;100618.28;;;24.36;41.32
75497;BME280;64074;47.540;19.072;2023-05-21T08:52:57;100622.63;;;24.33;41.59
75497;BME280;64074;47.540;19.072;2023-05-21T08:56:12;100622.25;;;24.35;40.83
75497;BME280;64074;47.540;19.072;2023-05-21T08:59:29;100623.69;;;24.66;40.52
75497;BME280;64074;47.540;19.072;2023-05-21T09:02:39;100616.19;;;24.66;41.49
75497;BME280;64074;47.540;19.072;2023-05-21T09:06:00;100621.47;;;24.85;41.39
75497;BME280;64074;47.540;19.072;2023-05-21T09:09:33;100613.59;;;24.91;41.35
75497;BME280;64074;47.540;19.072;2023-05-21T09:12:44;100611.84;;;25.24;40.59
75497;BME280;64074;47.540;19.072;2023-05-21T09:16:00;100614.53;;;25.06;40.28
75497;BME280;64074;47.540;19.072;2023-05-21T09:19:23;100604.28;;;25.21;40.43
75497;BME280;64074;47.540;19.072;2023-05-21T09:22:46;100610.75;;;25.46;39.97
75497;BME280;64074;47.540;19.072;2023-05-21T09:26:11;100602.41;;;25.35;37.92
75497;BME280;64074;47.540;19.072;2023-05-21T09:29:35;100608.34;;;25.37;38.46
75497;BME280;64074;47.540;19.072;2023-05-21T09:32:55;100609.84;;;25.24;39.62
75497;BME280;64074;47.540;19.072;2023-05-21T09:36:17;100597.94;;;25.20;39.73
75497;BME280;64074;47.540;19.072;2023-05-21T09:39:34;100594.19;;;25.64;40.18
75497;BME280;64074;47.540;19.072;2023-05-21T09:42:57;100600.56;;;25.71;39.74
75497;BME280;64074;47.540;19.072;2023-05-21T09:46:13;100599.78;;;25.74;37.75
75497;BME280;64074;47.540;19.072;2023-05-21T09:49:29;100606.13;;;25.68;38.11
75497;BME280;64074;47.540;19.072;2023-05-21T09:52:48;100605.41;;;25.92;36.88
75497;BME280;64074;47.540;19.072;2023-05-21T09:56:04;100602.69;;;26.06;37.92
75497;BME280;64074;47.540;19.072;2023-05-21T09:59:10;100599.84;;;25.89;38.87
75497;BME280;64074;47.540;19.072;2023-05-21T10:02:21;100596.28;;;25.88;38.29
75497;BME280;64074;47.540;19.072;2023-05-21T10:05:29;100605.84;;;26.19;35.72
75497;BME280;64074;47.540;19.072;2023-05-21T10:08:35;100594.72;;;26.09;35.06
75497;BME280;64074;47.540;19.072;2023-05-21T10:11:48;100584.84;;;26.43;35.69
75497;BME280;64074;47.540;19.072;2023-05-21T10:15:08;100591.50;;;25.85;37.20
75497;BME280;64074;47.540;19.072;2023-05-21T10:18:17;100578.84;;;26.20;35.91
75497;BME280;64074;47.540;19.072;2023-05-21T10:21:44;100588.41;;;26.33;36.10
75497;BME280;64074;47.540;19.072;2023-05-21T10:24:55;100580.09;;;26.51;35.23
75497;BME280;64074;47.540;19.072;2023-05-21T10:28:07;100577.72;;;26.35;35.29
75497;BME280;64074;47.540;19.072;2023-05-21T10:31:12;100571.34;;;26.63;35.50
75497;BME280;64074;47.540;19.072;2023-05-21T10:34:20;100567.66;;;27.23;35.91
75497;BME280;64074;47.540;19.072;2023-05-21T10:37:27;100566.94;;;27.05;35.62
75497;BME280;64074;47.540;19.072;2023-05-21T10:40:35;100553.44;;;27.03;34.98
75497;BME280;64074;47.540;19.072;2023-05-21T10:43:55;100558.16;;;27.13;34.72
75497;BME280;64074;47.540;19.072;2023-05-21T10:57:14;100557.16;;;27.66;34.07
75497;BME280;64074;47.540;19.072;2023-05-21T11:00:24;100556.81;;;27.50;33.84
75497;BME280;64074;47.540;19.072;2023-05-21T11:03:35;100552.44;;;27.52;34.07
75497;BME280;64074;47.540;19.072;2023-05-21T11:06:46;100554.09;;;27.36;34.52
75497;BME280;64074;47.540;19.072;2023-05-21T11:10:29;100554.03;;;27.46;34.40
75497;BME280;64074;47.540;19.072;2023-05-21T11:13:50;100554.88;;;27.40;34.61
75497;BME280;64074;47.540;19.072;2023-05-21T11:17:14;100553.28;;;27.42;35.49
75497;BME280;64074;47.540;19.072;2023-05-21T11:20:35;100546.56;;;28.06;35.23
75497;BME280;64074;47.540;19.072;2023-05-21T11:24:01;100554.13;;;28.09;34.33
75497;BME280;64074;47.540;19.072;2023-05-21T11:27:39;100548.34;;;28.37;32.67
75497;BME280;64074;47.540;19.072;2023-05-21T11:31:22;100546.13;;;28.11;32.77
75497;BME280;64074;47.540;19.072;2023-05-21T11:34:38;100548.69;;;29.22;33.68
75497;BME280;64074;47.540;19.072;2023-05-21T11:37:55;100538.19;;;28.58;31.52
75497;BME280;64074;47.540;19.072;2023-05-21T11:41:04;100532.69;;;28.92;31.49
75497;BME280;64074;47.540;19.072;2023-05-21T11:44:14;100531.94;;;28.88;31.13
75497;BME280;64074;47.540;19.072;2023-05-21T11:47:32;100543.03;;;28.50;30.00
75497;BME280;64074;47.540;19.072;2023-05-21T11:50:52;100535.66;;;29.12;29.24
75497;BME280;64074;47.540;19.072;2023-05-21T11:54:12;100533.56;;;28.40;30.95
75497;BME280;64074;47.540;19.072;2023-05-21T11:57:26;100528.91;;;29.09;31.47
75497;BME280;64074;47.540;19.072;2023-05-21T12:00:37;100528.13;;;29.39;30.38
75497;BME280;64074;47.540;19.072;2023-05-21T12:03:46;100511.81;;;31.28;27.39
75497;BME280;64074;47.540;19.072;2023-05-21T12:06:55;100505.63;;;32.54;26.58
75497;BME280;64074;47.540;19.072;2023-05-21T12:10:00;100510.00;;;30.55;26.79
75497;BME280;64074;47.540;19.072;2023-05-21T12:13:05;100504.97;;;32.01;27.16
75497;BME280;64074;47.540;19.072;2023-05-21T12:16:12;100503.31;;;32.82;25.76
75497;BME280;64074;47.540;19.072;2023-05-21T12:19:23;100507.22;;;32.55;24.31
75497;BME280;64074;47.540;19.072;2023-05-21T12:22:43;100501.97;;;32.08;24.21
75497;BME280;64074;47.540;19.072;2023-05-21T12:26:03;100508.91;;;30.49;26.64
75497;BME280;64074;47.540;19.072;2023-05-21T12:29:11;100509.09;;;30.15;27.92
75497;BME280;64074;47.540;19.072;2023-05-21T12:32:20;100501.94;;;30.80;26.93
75497;BME280;64074;47.540;19.072;2023-05-21T12:35:26;100496.63;;;32.30;24.34
75497;BME280;64074;47.540;19.072;2023-05-21T12:38:35;100487.63;;;33.51;24.19
75497;BME280;64074;47.540;19.072;2023-05-21T12:42:13;100494.97;;;33.20;23.00
75497;BME280;64074;47.540;19.072;2023-05-21T12:45:42;100487.78;;;32.61;24.30
75497;BME280;64074;47.540;19.072;2023-05-21T12:48:58;100492.81;;;31.16;25.95
75497;BME280;64074;47.540;19.072;2023-05-21T12:52:09;100483.72;;;30.02;27.15
75497;BME280;64074;47.540;19.072;2023-05-21T12:55:13;100486.00;;;31.89;26.22
75497;BME280;64074;47.540;19.072;2023-05-21T12:58:20;100475.59;;;33.76;23.69
75497;BME280;64074;47.540;19.072;2023-05-21T13:01:27;100464.72;;;34.13;23.16
75497;BME280;64074;47.540;19.072;2023-05-21T13:04:30;100466.03;;;33.86;22.45
75497;BME280;64074;47.540;19.072;2023-05-21T13:07:40;100458.91;;;33.31;23.40
75497;BME280;64074;47.540;19.072;2023-05-21T13:11:03;100459.31;;;32.46;24.69
75497;BME280;64074;47.540;19.072;2023-05-21T13:14:11;100448.22;;;31.94;24.38
75497;BME280;64074;47.540;19.072;2023-05-21T13:17:14;100458.59;;;32.58;23.26
75497;BME280;64074;47.540;19.072;2023-05-21T13:20:23;100451.06;;;36.04;20.92
75497;BME280;64074;47.540;19.072;2023-05-21T13:23:35;100441.19;;;34.19;21.27
75497;BME280;64074;47.540;19.072;2023-05-21T13:26:58;100443.09;;;33.50;21.72
75497;BME280;64074;47.540;19.072;2023-05-21T13:30:11;100452.97;;;33.67;21.75
75497;BME280;64074;47.540;19.072;2023-05-21T13:33:15;100445.53;;;33.99;21.96
75497;BME280;64074;47.540;19.072;2023-05-21T13:36:24;100436.69;;;34.57;20.20
75497;BME280;64074;47.540;19.072;2023-05-21T13:39:34;100434.19;;;33.64;21.81
75497;BME280;64074;47.540;19.072;2023-05-21T13:42:46;100427.78;;;33.51;22.98
75497;BME280;64074;47.540;19.072;2023-05-21T13:46:15;100432.84;;;33.43;23.36
75497;BME280;64074;47.540;19.072;2023-05-21T13:49:42;100440.38;;;34.88;22.57
75497;BME280;64074;47.540;19.072;2023-05-21T13:53:03;100421.47;;;35.29;21.07
75497;BME280;64074;47.540;19.072;2023-05-21T13:56:25;100416.84;;;35.84;20.41
75497;BME280;64074;47.540;19.072;2023-05-21T13:59:43;100417.22;;;36.41;20.38
75497;BME280;64074;47.540;19.072;2023-05-21T14:03:07;100418.28;;;37.74;18.54
75497;BME280;64074;47.540;19.072;2023-05-21T14:06:12;100412.47;;;36.75;19.86
75497;BME280;64074;47.540;19.072;2023-05-21T14:09:16;100423.91;;;36.99;20.01
75497;BME280;64074;47.540;19.072;2023-05-21T14:12:26;100416.03;;;35.74;20.55
75497;BME280;64074;47.540;19.072;2023-05-21T14:15:36;100416.72;;;36.70;19.30
75497;BME280;64074;47.540;19.072;2023-05-21T14:18:59;100420.75;;;35.06;20.48
75497;BME280;64074;47.540;19.072;2023-05-21T14:22:22;100414.47;;;37.02;18.70
75497;BME280;64074;47.540;19.072;2023-05-21T14:25:31;100410.63;;;36.53;18.66
75497;BME280;64074;47.540;19.072;2023-05-21T14:28:39;100413.91;;;36.24;19.96
75497;BME280;64074;47.540;19.072;2023-05-21T14:31:49;100407.44;;;35.38;21.00
75497;BME280;64074;47.540;19.072;2023-05-21T14:35:02;100396.31;;;36.84;19.76
75497;BME280;64074;47.540;19.072;2023-05-21T14:38:12;100398.38;;;34.59;21.85
75497;BME280;64074;47.540;19.072;2023-05-21T14:41:15;100396.66;;;34.40;21.69
75497;BME280;64074;47.540;19.072;2023-05-21T14:44:25;100394.78;;;33.89;22.26
75497;BME280;64074;47.540;19.072;2023-05-21T14:47:47;100399.34;;;33.36;22.90
75497;BME280;64074;47.540;19.072;2023-05-21T14:51:14;100394.72;;;33.42;24.13
75497;BME280;64074;47.540;19.072;2023-05-21T14:54:24;100394.69;;;33.04;24.19
75497;BME280;64074;47.540;19.072;2023-05-21T14:57:52;100397.72;;;32.55;25.58
75497;BME280;64074;47.540;19.072;2023-05-21T15:01:01;100386.91;;;31.79;25.98
75497;BME280;64074;47.540;19.072;2023-05-21T15:04:31;100385.25;;;30.93;26.85
75497;BME280;64074;47.540;19.072;2023-05-21T15:07:55;100382.81;;;30.16;27.85
75497;BME280;64074;47.540;19.072;2023-05-21T15:11:05;100384.13;;;30.31;27.22
75497;BME280;64074;47.540;19.072;2023-05-21T15:14:16;100385.94;;;29.71;27.99
75497;BME280;64074;47.540;19.072;2023-05-21T15:17:26;100375.97;;;29.47;28.34
75497;BME280;64074;47.540;19.072;2023-05-21T15:20:39;100383.22;;;30.15;27.83
75497;BME280;64074;47.540;19.072;2023-05-21T15:23:42;100381.69;;;30.53;26.97
75497;BME280;64074;47.540;19.072;2023-05-21T15:26:45;100378.41;;;31.14;27.70
75497;BME280;64074;47.540;19.072;2023-05-21T15:29:51;100379.03;;;31.22;27.83
75497;BME280;64074;47.540;19.072;2023-05-21T15:33:01;100369.25;;;30.94;27.30
75497;BME280;64074;47.540;19.072;2023-05-21T15:36:14;100381.75;;;30.50;28.12
75497;BME280;64074;47.540;19.072;2023-05-21T15:39:24;100381.06;;;29.99;27.87
75497;BME280;64074;47.540;19.072;2023-05-21T15:42:35;100375.66;;;30.55;27.13
75497;BME280;64074;47.540;19.072;2023-05-21T15:45:57;100374.66;;;30.02;27.54
75497;BME280;64074;47.540;19.072;2023-05-21T15:49:14;100380.44;;;29.41;28.40
75497;BME280;64074;47.540;19.072;2023-05-21T15:52:31;100378.91;;;29.09;29.30
75497;BME280;64074;47.540;19.072;2023-05-21T15:55:41;100386.00;;;29.45;28.77
75497;BME280;64074;47.540;19.072;2023-05-21T15:58:49;100385.09;;;29.98;27.74
75497;BME280;64074;47.540;19.072;2023-05-21T16:01:59;100391.00;;;29.30;28.60
75497;BME280;64074;47.540;19.072;2023-05-21T16:05:23;100394.69;;;29.50;27.82
75497;BME280;64074;47.540;19.072;2023-05-21T16:08:39;100394.56;;;29.30;28.19
75497;BME280;64074;47.540;19.072;2023-05-21T16:12:03;100397.44;;;29.54;28.83
75497;BME280;64074;47.540;19.072;2023-05-21T16:15:29;100396.78;;;28.85;28.61
75497;BME280;64074;47.540;19.072;2023-05-21T16:18:49;100391.28;;;28.74;29.20
75497;BME280;64074;47.540;19.072;2023-05-21T16:22:13;100388.41;;;28.85;28.59
75497;BME280;64074;47.540;19.072;2023-05-21T16:25:34;100392.31;;;28.57;28.57
75497;BME280;64074;47.540;19.072;2023-05-21T16:28:48;100385.72;;;28.40;28.69
75497;BME280;64074;47.540;19.072;2023-05-21T16:32:15;100390.78;;;28.53;29.11
75497;BME280;64074;47.540;19.072;2023-05-21T16:35:44;100393.81;;;28.31;29.42
75497;BME280;64074;47.540;19.072;2023-05-21T16:38:48;100389.78;;;27.91;30.05
75497;BME280;64074;47.540;19.072;2023-05-21T16:41:55;100391.41;;;28.33;29.70
75497;BME280;64074;47.540;19.072;2023-05-21T16:45:08;100404.47;;;29.08;28.60
75497;BME280;64074;47.540;19.072;2023-05-21T16:48:18;100395.00;;;29.29;28.76
75497;BME280;64074;47.540;19.072;2023-05-21T16:51:44;100392.44;;;30.35;27.54